Time;durP1;ratioP1;P1;durP2;ratioP2;P2;SDS_P1;SDS_P2;PMS_P1;PMS_P2;Temp;Humidity;BMP_temperature;BMP_pressure;BME280_temperature;BME280_humidity;BME280_pressure;Samples;Min_cycle;Max_cycle;Signal;HPM_P1;HPM_P2
2023/02/27 00:00:13;;;;;;;;;;;1.80;99.90;;;;;;5010212;28;19917;-64
2023/02/27 00:02:43;;;;;;;;;;;1.80;99.90;;;;;;5006978;28;20363;-65
2023/02/27 00:05:08;;;;;;;;;;;1.80;99.90;;;;;;5009199;28;19914;-64
2023/02/27 00:07:34;;;;;;;;;;;1.80;99.90;;;;;;5011285;28;19925;-64
2023/02/27 00:09:59;;;;;;;;;;;1.80;99.90;;;;;;5006737;28;19914;-64
2023/02/27 00:12:25;;;;;;;;;;;1.80;99.90;;;;;;5010348;28;19917;-65
2023/02/27 00:14:50;;;;;;;;;;;1.80;99.90;;;;;;5009452;28;19918;-64
2023/02/27 00:17:16;;;;;;;;;;;1.80;99.90;;;;;;5009431;28;19967;-64
2023/02/27 00:19:41;;;;;;;;;;;1.70;99.90;;;;;;5010207;28;19924;-64
2023/02/27 00:22:07;;;;;;;;;;;1.70;99.90;;;;;;5011523;28;19917;-63
2023/02/27 00:24:32;;;;;;;;;;;1.70;99.90;;;;;;5009353;28;19914;-64
2023/02/27 00:26:58;;;;;;;;;;;1.70;99.90;;;;;;5005223;28;19913;-65
2023/02/27 00:29:23;;;;;;;;;;;1.70;99.90;;;;;;5010348;28;19913;-64
2023/02/27 00:31:48;;;;;;;;;;;1.70;99.90;;;;;;5007800;28;20335;-64
2023/02/27 00:34:14;;;;;;;;;;;1.70;99.90;;;;;;5008274;28;19926;-64
2023/02/27 00:36:40;;;;;;;;;;;1.60;99.90;;;;;;5010146;28;20415;-63
2023/02/27 00:39:05;;;;;;;;;;;1.60;99.90;;;;;;5002729;28;19914;-64
2023/02/27 00:41:31;;;;;;;;;;;1.60;99.90;;;;;;5008102;28;19913;-64
2023/02/27 00:43:56;;;;;;;;;;;1.60;99.90;;;;;;5006990;28;19918;-65
2023/02/27 00:46:22;;;;;;;;;;;1.60;99.90;;;;;;5007197;28;19917;-63
2023/02/27 00:48:47;;;;;;;;;;;1.60;99.90;;;;;;5006662;28;20393;-65
2023/02/27 00:51:12;;;;;;;;;;;1.60;99.90;;;;;;5007228;28;20316;-64
2023/02/27 00:53:38;;;;;;;;;;;1.50;99.90;;;;;;5009290;28;19914;-65
2023/02/27 00:56:03;;;;;;;;;;;1.50;99.90;;;;;;5004221;28;19913;-65
2023/02/27 00:58:29;;;;;;;;;;;1.40;99.90;;;;;;5009586;28;20012;-65
2023/02/27 01:00:54;;;;;;;;;;;1.50;99.90;;;;;;4989889;28;20000;-64
2023/02/27 01:03:20;;;;;;;;;;;1.40;99.90;;;;;;5008535;28;19949;-65
2023/02/27 01:05:45;;;;;;;;;;;1.40;99.90;;;;;;5009192;28;19964;-64
2023/02/27 01:08:11;;;;;;;;;;;1.40;99.90;;;;;;5005482;28;19913;-65
2023/02/27 01:10:36;;;;;;;;;;;1.30;99.90;;;;;;5008380;28;19913;-65
2023/02/27 01:13:02;;;;;;;;;;;1.30;99.90;;;;;;5006930;28;20401;-65
2023/02/27 01:15:27;;;;;;;;;;;1.30;99.90;;;;;;5006332;28;19913;-65
2023/02/27 01:17:52;;;;;;;;;;;1.30;99.90;;;;;;5001773;28;19914;-64
2023/02/27 01:20:18;;;;;;;;;;;1.30;99.90;;;;;;5005090;28;19917;-64
2023/02/27 01:22:43;;;;;;;;;;;1.40;99.90;;;;;;5006676;28;19944;-64
2023/02/27 01:25:09;;;;;;;;;;;1.40;99.90;;;;;;5008199;28;19914;-64
2023/02/27 01:27:35;;;;;;;;;;;1.40;99.90;;;;;;5004948;28;19971;-64
2023/02/27 01:30:00;;;;;;;;;;;1.40;99.90;;;;;;5004443;28;19913;-65
2023/02/27 01:32:26;;;;;;;;;;;1.30;99.90;;;;;;5005149;28;19925;-65
2023/02/27 01:34:51;;;;;;;;;;;1.30;99.90;;;;;;5004434;28;19917;-65
2023/02/27 01:37:17;;;;;;;;;;;1.30;99.90;;;;;;5008518;28;19956;-65
2023/02/27 01:39:42;;;;;;;;;;;1.30;99.90;;;;;;5005303;28;19918;-65
2023/02/27 01:42:25;;;;;;;;;;;1.30;99.90;;;;;;5006032;28;20398;-65
2023/02/27 01:45:09;;;;;;;;;;;1.20;99.90;;;;;;5002930;28;19920;-65
2023/02/27 01:47:36;;;;;;;;;;;1.20;99.90;;;;;;5005861;28;19913;-65
2023/02/27 01:50:01;;;;;;;;;;;1.20;99.90;;;;;;5008374;28;19914;-65
2023/02/27 01:52:27;;;;;;;;;;;1.10;99.90;;;;;;5008206;28;19918;-65
2023/02/27 01:54:54;;;;;;;;;;;1.20;99.90;;;;;;5008523;28;19913;-64
2023/02/27 01:57:19;;;;;;;;;;;1.10;99.90;;;;;;4990595;28;19936;-65
2023/02/27 01:59:45;;;;;;;;;;;1.10;99.90;;;;;;5007591;28;20383;-65
2023/02/27 02:02:15;;;;;;;;;;;1.00;99.90;;;;;;5007477;28;20356;-64
2023/02/27 02:04:41;;;;;;;;;;;1.00;99.90;;;;;;5009393;28;19913;-65
2023/02/27 02:07:08;;;;;;;;;;;1.00;99.90;;;;;;5008120;28;20419;-65
2023/02/27 02:09:39;;;;;;;;;;;1.00;99.90;;;;;;5006429;28;19914;-65
2023/02/27 02:12:05;;;;;;;;;;;0.90;99.90;;;;;;5008025;28;19924;-65
2023/02/27 02:14:30;;;;;;;;;;;0.90;99.90;;;;;;5005691;28;19925;-65
2023/02/27 02:16:58;;;;;;;;;;;0.90;99.90;;;;;;5005131;28;20504;-66
2023/02/27 02:19:44;;;;;;;;;;;0.90;99.90;;;;;;5001058;28;19921;-65
2023/02/27 02:22:15;;;;;;;;;;;0.90;99.90;;;;;;5004173;28;19921;-65
2023/02/27 02:25:01;;;;;;;;;;;0.90;99.90;;;;;;5006914;28;19914;-65
2023/02/27 02:27:33;;;;;;;;;;;0.90;99.90;;;;;;5006335;28;20007;-65
2023/02/27 02:29:58;;;;;;;;;;;0.90;99.90;;;;;;5007058;28;19917;-65
2023/02/27 02:32:24;;;;;;;;;;;0.90;99.90;;;;;;5004544;28;19924;-64
2023/02/27 02:35:01;;;;;;;;;;;0.90;99.90;;;;;;5006841;28;21235;-64
2023/02/27 02:37:32;;;;;;;;;;;0.90;99.90;;;;;;5009261;28;20582;-64
2023/02/27 02:39:58;;;;;;;;;;;0.90;99.90;;;;;;5007317;28;19914;-64
2023/02/27 02:42:32;;;;;;;;;;;0.90;99.90;;;;;;5006271;28;20299;-65
2023/02/27 02:45:11;;;;;;;;;;;0.90;99.90;;;;;;5012019;28;19913;-65
2023/02/27 02:47:39;;;;;;;;;;;0.90;99.90;;;;;;5007519;28;19925;-65
2023/02/27 02:50:11;;;;;;;;;;;0.90;99.90;;;;;;5006053;28;19920;-65
2023/02/27 02:52:50;;;;;;;;;;;0.90;99.90;;;;;;5009984;28;20431;-65
2023/02/27 02:55:27;;;;;;;;;;;0.90;99.90;;;;;;5008309;28;19925;-65
2023/02/27 02:58:11;;;;;;;;;;;0.90;99.90;;;;;;5010440;28;20439;-64
2023/02/27 03:00:43;;;;;;;;;;;0.90;99.90;;;;;;5010934;28;19920;-66
2023/02/27 03:03:12;;;;;;;;;;;0.90;99.90;;;;;;5010946;28;19968;-65
2023/02/27 03:05:41;;;;;;;;;;;0.90;99.90;;;;;;5012120;28;19953;-65
2023/02/27 03:08:11;;;;;;;;;;;0.90;99.90;;;;;;5010862;28;19935;-65
2023/02/27 03:10:39;;;;;;;;;;;0.90;99.90;;;;;;5008407;28;19914;-65
2023/02/27 03:13:08;;;;;;;;;;;0.80;99.90;;;;;;5012473;28;19917;-65
2023/02/27 03:15:39;;;;;;;;;;;0.80;99.90;;;;;;5009358;28;19914;-63
2023/02/27 03:18:07;;;;;;;;;;;0.80;99.90;;;;;;5007043;28;20572;-64
2023/02/27 03:20:36;;;;;;;;;;;0.70;99.90;;;;;;5013750;28;19955;-65
2023/02/27 03:23:05;;;;;;;;;;;0.70;99.90;;;;;;5009100;28;19914;-66
2023/02/27 03:25:31;;;;;;;;;;;0.70;99.90;;;;;;5038759;23;20361;-61
2023/02/27 03:28:03;;;;;;;;;;;0.70;99.90;;;;;;5011666;28;19913;-63
2023/02/27 03:30:28;;;;;;;;;;;0.60;99.90;;;;;;5029403;28;19917;-63
2023/02/27 03:32:56;;;;;;;;;;;0.60;99.90;;;;;;5030569;28;20733;-62
2023/02/27 03:35:25;;;;;;;;;;;0.60;99.90;;;;;;5025961;28;20078;-62
2023/02/27 03:38:07;;;;;;;;;;;0.50;99.90;;;;;;5027600;28;19967;-62
2023/02/27 03:40:46;;;;;;;;;;;0.40;99.90;;;;;;5025944;28;20306;-62
2023/02/27 03:43:40;;;;;;;;;;;0.40;99.90;;;;;;5027112;28;19913;-63
2023/02/27 03:46:06;;;;;;;;;;;0.40;99.90;;;;;;5004641;28;20008;-63
2023/02/27 03:48:31;;;;;;;;;;;0.40;99.90;;;;;;5022690;28;20008;-61
2023/02/27 03:50:57;;;;;;;;;;;0.40;99.90;;;;;;5028543;28;19923;-62
2023/02/27 03:53:37;;;;;;;;;;;0.40;99.90;;;;;;5012725;28;19914;-61
2023/02/27 03:56:05;;;;;;;;;;;0.40;99.90;;;;;;5029609;28;19913;-62
2023/02/27 03:58:31;;;;;;;;;;;0.30;99.90;;;;;;5027104;28;19920;-61
2023/02/27 04:00:57;;;;;;;;;;;0.30;99.90;;;;;;5028392;28;20294;-62
2023/02/27 04:03:23;;;;;;;;;;;0.30;99.90;;;;;;5029235;28;19913;-63
2023/02/27 04:05:49;;;;;;;;;;;0.20;99.90;;;;;;5026552;28;19921;-63
2023/02/27 04:08:15;;;;;;;;;;;0.10;99.90;;;;;;5029030;28;19966;-64
2023/02/27 04:10:51;;;;;;;;;;;0.10;99.90;;;;;;5026365;28;19913;-63
2023/02/27 04:13:35;;;;;;;;;;;0.00;99.90;;;;;;5029108;28;19917;-63
2023/02/27 04:16:07;;;;;;;;;;;-0.10;99.90;;;;;;5029916;28;20402;-63
2023/02/27 04:18:51;;;;;;;;;;;-0.10;99.90;;;;;;5025999;28;19924;-63
2023/02/27 04:21:25;;;;;;;;;;;-0.20;99.90;;;;;;5027389;28;19921;-63
2023/02/27 04:23:53;;;;;;;;;;;-0.20;99.90;;;;;;5027626;28;19972;-63
2023/02/27 04:26:22;;;;;;;;;;;-0.10;99.90;;;;;;5026393;28;20409;-63
2023/02/27 04:28:58;;;;;;;;;;;-0.20;99.90;;;;;;5011145;28;19967;-61
2023/02/27 04:31:36;;;;;;;;;;;-0.20;99.90;;;;;;5025054;28;19968;-63
2023/02/27 04:34:06;;;;;;;;;;;-0.20;99.90;;;;;;5012114;28;19917;-63
2023/02/27 04:36:44;;;;;;;;;;;-0.30;99.90;;;;;;5025751;28;19952;-62
2023/02/27 04:39:16;;;;;;;;;;;-0.40;99.90;;;;;;5019341;28;19917;-63
2023/02/27 04:41:45;;;;;;;;;;;-0.40;99.90;;;;;;5029175;28;19913;-63
2023/02/27 04:44:11;;;;;;;;;;;-0.40;99.90;;;;;;5010981;28;19913;-62
2023/02/27 04:46:38;;;;;;;;;;;-0.40;99.90;;;;;;5026979;28;19923;-63
2023/02/27 04:49:08;;;;;;;;;;;-0.40;99.90;;;;;;5012562;28;19913;-63
2023/02/27 04:51:50;;;;;;;;;;;-0.30;99.90;;;;;;5021563;28;20054;-63
2023/02/27 04:54:20;;;;;;;;;;;-0.40;99.90;;;;;;5028268;28;19917;-63
2023/02/27 04:56:49;;;;;;;;;;;-0.30;99.90;;;;;;5027850;28;19916;-63
2023/02/27 04:59:16;;;;;;;;;;;-0.30;99.90;;;;;;5029428;28;19917;-63
2023/02/27 05:01:48;;;;;;;;;;;-0.30;99.90;;;;;;5008341;28;19949;-63
2023/02/27 05:04:15;;;;;;;;;;;-0.40;99.90;;;;;;5027349;28;20321;-64
2023/02/27 05:06:43;;;;;;;;;;;-0.30;99.90;;;;;;5026849;28;19996;-63
2023/02/27 05:09:13;;;;;;;;;;;-0.30;99.90;;;;;;5029540;28;19914;-64
2023/02/27 05:11:41;;;;;;;;;;;-0.40;99.90;;;;;;5027739;28;19921;-64
2023/02/27 05:14:12;;;;;;;;;;;-0.40;99.90;;;;;;5028338;28;19963;-63
2023/02/27 05:16:40;;;;;;;;;;;-0.40;99.90;;;;;;5022988;28;20027;-64
2023/02/27 05:19:06;;;;;;;;;;;-0.60;99.90;;;;;;5025569;28;19989;-64
2023/02/27 05:21:31;;;;;;;;;;;-0.80;99.90;;;;;;5010697;28;20442;-62
2023/02/27 05:24:09;;;;;;;;;;;-1.00;99.90;;;;;;5024748;28;19917;-64
2023/02/27 05:26:57;;;;;;;;;;;-1.20;99.90;;;;;;5027517;28;19917;-63
2023/02/27 05:29:34;;;;;;;;;;;-1.30;99.90;;;;;;5029012;28;19913;-63
2023/02/27 05:32:13;;;;;;;;;;;-1.30;99.90;;;;;;5023293;28;19917;-62
2023/02/27 05:34:53;;;;;;;;;;;-1.30;99.90;;;;;;5025893;28;19920;-62
2023/02/27 05:37:23;;;;;;;;;;;-1.20;99.90;;;;;;5022466;28;20399;-63
2023/02/27 05:39:50;;;;;;;;;;;-1.10;99.90;;;;;;5027755;28;19917;-64
2023/02/27 05:42:21;;;;;;;;;;;-1.20;99.90;;;;;;5024778;28;19924;-64
2023/02/27 05:44:50;;;;;;;;;;;-1.10;99.90;;;;;;5027122;28;19917;-64
2023/02/27 05:47:19;;;;;;;;;;;-1.20;99.90;;;;;;5024958;28;20477;-63
2023/02/27 05:49:48;;;;;;;;;;;-1.30;99.90;;;;;;5010410;28;19917;-62
2023/02/27 05:52:15;;;;;;;;;;;-1.40;99.90;;;;;;5025946;28;19921;-62
2023/02/27 05:54:51;;;;;;;;;;;-1.40;99.90;;;;;;5027014;28;19952;-62
2023/02/27 05:57:21;;;;;;;;;;;-1.40;99.90;;;;;;5029557;28;20384;-63
2023/02/27 05:59:50;;;;;;;;;;;-1.40;99.90;;;;;;5028976;28;19913;-62
2023/02/27 06:02:16;;;;;;;;;;;-1.50;99.90;;;;;;5023128;28;19913;-63
2023/02/27 06:04:41;;;;;;;;;;;-1.40;99.90;;;;;;5023479;28;19982;-63
2023/02/27 06:07:07;;;;;;;;;;;-1.50;99.90;;;;;;5024968;28;19913;-64
2023/02/27 06:09:33;;;;;;;;;;;-1.50;99.90;;;;;;5028308;28;20286;-62
2023/02/27 06:11:59;;;;;;;;;;;-1.50;99.90;;;;;;5030060;28;19921;-62
2023/02/27 06:14:24;;;;;;;;;;;-1.50;99.90;;;;;;5026518;28;19909;-63
2023/02/27 06:16:50;;;;;;;;;;;-1.50;99.90;;;;;;5021691;28;20292;-63
2023/02/27 06:19:15;;;;;;;;;;;-1.40;99.90;;;;;;5030704;28;19917;-63
2023/02/27 06:21:41;;;;;;;;;;;-1.30;99.90;;;;;;5030971;28;19940;-62
2023/02/27 06:24:06;;;;;;;;;;;-1.30;99.90;;;;;;5030726;28;20006;-64
2023/02/27 06:26:32;;;;;;;;;;;-1.20;99.90;;;;;;5031541;28;19913;-62
2023/02/27 06:28:58;;;;;;;;;;;-1.10;99.90;;;;;;5020266;28;20402;-63
2023/02/27 06:31:23;;;;;;;;;;;-1.10;99.90;;;;;;5033663;28;20011;-64
2023/02/27 06:33:49;;;;;;;;;;;-1.10;99.90;;;;;;5032698;28;19996;-62
2023/02/27 06:36:14;;;;;;;;;;;-1.10;99.90;;;;;;5030338;28;20515;-64
2023/02/27 06:38:40;;;;;;;;;;;-1.10;99.90;;;;;;5027228;28;20378;-63
2023/02/27 06:41:06;;;;;;;;;;;-1.20;99.90;;;;;;5031358;28;19916;-63
2023/02/27 06:43:33;;;;;;;;;;;-1.30;99.90;;;;;;5014771;28;19913;-64
2023/02/27 06:45:59;;;;;;;;;;;-1.50;99.90;;;;;;5014408;28;19909;-63
2023/02/27 06:48:24;;;;;;;;;;;-1.60;99.90;;;;;;5032483;28;19998;-64
2023/02/27 06:50:54;;;;;;;;;;;-1.80;99.90;;;;;;5032532;28;19974;-64
2023/02/27 06:53:19;;;;;;;;;;;-1.90;99.90;;;;;;5029936;28;19952;-64
2023/02/27 06:55:45;;;;;;;;;;;-1.90;99.90;;;;;;5029351;28;19955;-63
2023/02/27 06:58:10;;;;;;;;;;;-1.90;99.90;;;;;;5028126;28;19913;-64
2023/02/27 07:00:36;;;;;;;;;;;-1.90;99.90;;;;;;5030190;28;19913;-64
2023/02/27 07:03:03;;;;;;;;;;;-1.80;99.90;;;;;;5029363;28;21270;-64
2023/02/27 07:05:29;;;;;;;;;;;-1.70;99.90;;;;;;5032034;28;20047;-63
2023/02/27 07:07:54;;;;;;;;;;;-1.60;99.90;;;;;;5031479;28;20364;-64
2023/02/27 07:10:20;;;;;;;;;;;-1.50;99.90;;;;;;5034089;28;19924;-64
2023/02/27 07:12:45;;;;;;;;;;;-1.50;99.90;;;;;;5024626;28;19917;-64
2023/02/27 07:15:11;;;;;;;;;;;-1.30;99.90;;;;;;5024890;28;19917;-63
2023/02/27 07:17:36;;;;;;;;;;;-1.20;99.90;;;;;;5010337;28;19963;-63
2023/02/27 07:20:03;;;;;;;;;;;-1.10;99.90;;;;;;5033366;28;19913;-64
2023/02/27 07:22:28;;;;;;;;;;;-1.00;99.90;;;;;;5027804;28;20003;-64
2023/02/27 07:24:54;;;;;;;;;;;-0.80;99.90;;;;;;5031950;28;20347;-63
2023/02/27 07:27:19;;;;;;;;;;;-0.70;99.90;;;;;;5032539;28;19921;-66
2023/02/27 07:29:45;;;;;;;;;;;-0.50;99.90;;;;;;5029807;28;19936;-64
2023/02/27 07:32:10;;;;;;;;;;;-0.40;99.90;;;;;;5032032;28;19956;-63
2023/02/27 07:34:36;;;;;;;;;;;-0.30;99.90;;;;;;5032442;28;20004;-64
2023/02/27 07:37:01;;;;;;;;;;;-0.20;99.90;;;;;;5029677;28;19910;-64
2023/02/27 07:39:27;;;;;;;;;;;-0.10;99.90;;;;;;5027867;28;19909;-63
2023/02/27 07:41:52;;;;;;;;;;;0.00;99.90;;;;;;5024306;28;19917;-64
2023/02/27 07:44:18;;;;;;;;;;;0.10;99.90;;;;;;5025737;28;19941;-64
2023/02/27 07:46:43;;;;;;;;;;;0.20;99.90;;;;;;5026048;28;19917;-63
2023/02/27 07:49:09;;;;;;;;;;;0.20;99.90;;;;;;5030985;28;19913;-63
2023/02/27 07:51:35;;;;;;;;;;;0.30;99.90;;;;;;5031827;28;20383;-63
2023/02/27 07:54:00;;;;;;;;;;;0.40;99.90;;;;;;5033873;28;19955;-63
2023/02/27 07:56:26;;;;;;;;;;;0.40;99.90;;;;;;5029967;28;19974;-63
2023/02/27 07:58:51;;;;;;;;;;;0.50;99.90;;;;;;5030636;28;19932;-63
2023/02/27 08:01:17;;;;;;;;;;;0.70;99.90;;;;;;5030049;28;19909;-63
2023/02/27 08:03:42;;;;;;;;;;;0.80;99.90;;;;;;5029832;28;19939;-61
2023/02/27 08:06:07;;;;;;;;;;;0.90;99.90;;;;;;5031049;28;19909;-64
2023/02/27 08:08:34;;;;;;;;;;;0.90;99.90;;;;;;5031774;28;19913;-63
2023/02/27 08:10:59;;;;;;;;;;;1.00;99.90;;;;;;5032985;28;19909;-63
2023/02/27 08:13:25;;;;;;;;;;;1.10;99.90;;;;;;5032109;28;19921;-63
2023/02/27 08:15:50;;;;;;;;;;;1.20;99.90;;;;;;5031526;28;19917;-63
2023/02/27 08:18:16;;;;;;;;;;;1.20;99.90;;;;;;5026515;28;19945;-63
2023/02/27 08:20:41;;;;;;;;;;;1.30;99.90;;;;;;5032338;28;19913;-62
2023/02/27 08:23:07;;;;;;;;;;;1.30;99.90;;;;;;5031381;28;19921;-64
2023/02/27 08:25:33;;;;;;;;;;;1.40;99.90;;;;;;5031516;28;19917;-64
2023/02/27 08:27:58;;;;;;;;;;;1.40;99.90;;;;;;5018192;28;20005;-65
2023/02/27 08:30:24;;;;;;;;;;;1.40;99.90;;;;;;5029820;28;19993;-62
2023/02/27 08:32:49;;;;;;;;;;;1.50;99.90;;;;;;5022785;28;19921;-64
2023/02/27 08:35:15;;;;;;;;;;;1.50;99.90;;;;;;5030195;28;19913;-63
2023/02/27 08:37:40;;;;;;;;;;;1.60;99.90;;;;;;5021375;28;19913;-62
2023/02/27 08:40:07;;;;;;;;;;;1.60;99.90;;;;;;5028055;28;20290;-63
2023/02/27 08:42:33;;;;;;;;;;;1.60;99.90;;;;;;5022637;28;19913;-63
2023/02/27 08:44:58;;;;;;;;;;;1.70;99.90;;;;;;5025273;28;19920;-62
2023/02/27 08:47:24;;;;;;;;;;;1.70;99.90;;;;;;5024416;28;19917;-64
2023/02/27 08:49:49;;;;;;;;;;;1.70;99.90;;;;;;5028562;28;20453;-63
2023/02/27 08:52:15;;;;;;;;;;;1.80;99.90;;;;;;5023493;28;19921;-64
2023/02/27 08:54:40;;;;;;;;;;;1.90;99.90;;;;;;5028091;28;19996;-65
2023/02/27 08:57:06;;;;;;;;;;;1.90;99.90;;;;;;5030768;28;19913;-65
2023/02/27 08:59:31;;;;;;;;;;;2.00;99.90;;;;;;5025600;28;20001;-64
2023/02/27 09:01:56;;;;;;;;;;;2.00;99.90;;;;;;5027978;28;19978;-64
2023/02/27 09:04:22;;;;;;;;;;;2.10;99.90;;;;;;5028219;28;21499;-66
2023/02/27 09:06:47;;;;;;;;;;;2.10;99.90;;;;;;5019052;28;19976;-65
2023/02/27 09:09:13;;;;;;;;;;;2.20;99.90;;;;;;5021062;28;19917;-65
2023/02/27 09:11:39;;;;;;;;;;;2.20;99.90;;;;;;5019376;28;19917;-65
2023/02/27 09:14:04;;;;;;;;;;;2.30;99.90;;;;;;5028672;28;20393;-65
2023/02/27 09:16:30;;;;;;;;;;;2.40;99.90;;;;;;5027177;28;19924;-65
2023/02/27 09:18:55;;;;;;;;;;;2.40;99.90;;;;;;5027418;28;20379;-65
2023/02/27 09:21:22;;;;;;;;;;;2.50;99.90;;;;;;5025596;28;20349;-65
2023/02/27 09:23:48;;;;;;;;;;;2.50;99.90;;;;;;4965572;28;1735771;-64
2023/02/27 09:26:13;;;;;;;;;;;2.60;99.90;;;;;;5020932;28;20022;-65
2023/02/27 09:28:39;;;;;;;;;;;2.70;99.90;;;;;;5027480;28;20438;-64
2023/02/27 09:31:05;;;;;;;;;;;2.80;99.90;;;;;;5037232;22;19897;-60
2023/02/27 09:33:31;;;;;;;;;;;2.90;99.90;;;;;;4995718;28;19930;-59
2023/02/27 09:35:57;;;;;;;;;;;2.90;99.90;;;;;;4989569;28;19922;-59
2023/02/27 09:38:22;;;;;;;;;;;3.00;99.90;;;;;;4991714;28;19948;-60
2023/02/27 09:40:50;;;;;;;;;;;3.10;99.90;;;;;;4994657;28;19920;-60
2023/02/27 09:43:17;;;;;;;;;;;3.30;99.90;;;;;;4995794;28;19924;-57
2023/02/27 09:45:44;;;;;;;;;;;3.40;99.90;;;;;;4985769;28;19988;-57
2023/02/27 09:48:31;;;;;;;;;;;3.60;99.90;;;;;;4982737;28;19922;-58
2023/02/27 09:50:57;;;;;;;;;;;3.80;99.90;;;;;;4985185;28;19921;-58
2023/02/27 09:53:31;;;;;;;;;;;3.90;99.90;;;;;;4982558;28;19914;-60
2023/02/27 09:56:05;;;;;;;;;;;3.80;99.90;;;;;;4997828;28;20388;-58
2023/02/27 09:58:41;;;;;;;;;;;3.90;99.90;;;;;;4985017;28;20372;-65
2023/02/27 10:01:19;;;;;;;;;;;4.10;99.90;;;;;;4991458;28;19914;-64
2023/02/27 10:03:47;;;;;;;;;;;4.30;99.90;;;;;;4986633;28;19968;-65
2023/02/27 10:06:20;;;;;;;;;;;4.50;99.90;;;;;;4988784;28;20384;-66
2023/02/27 10:08:51;;;;;;;;;;;4.80;99.90;;;;;;4993201;28;19941;-65
2023/02/27 10:11:20;;;;;;;;;;;4.80;99.90;;;;;;4988668;28;19993;-65
2023/02/27 10:13:49;;;;;;;;;;;4.60;99.90;;;;;;4985824;28;20395;-65
2023/02/27 10:16:16;;;;;;;;;;;4.80;99.90;;;;;;4984858;28;20016;-64
2023/02/27 10:18:44;;;;;;;;;;;4.70;99.90;;;;;;4983828;28;20368;-65
2023/02/27 10:21:12;;;;;;;;;;;4.90;99.90;;;;;;4986741;28;19960;-63
2023/02/27 10:23:42;;;;;;;;;;;5.00;99.90;;;;;;4993084;28;19917;-64
2023/02/27 10:26:28;;;;;;;;;;;5.10;99.90;;;;;;4984406;28;19914;-62
2023/02/27 10:28:54;;;;;;;;;;;5.20;99.90;;;;;;4988353;28;19917;-64
2023/02/27 10:31:22;;;;;;;;;;;5.20;99.90;;;;;;4979736;28;20382;-61
2023/02/27 10:33:48;;;;;;;;;;;5.30;99.90;;;;;;4957270;28;19922;-63
2023/02/27 10:36:15;;;;;;;;;;;5.50;99.90;;;;;;4972585;28;20299;-64
2023/02/27 10:38:49;;;;;;;;;;;5.70;99.90;;;;;;4973312;28;19922;-66
2023/02/27 10:41:16;;;;;;;;;;;5.80;99.90;;;;;;4966076;28;19918;-65
2023/02/27 10:43:41;;;;;;;;;;;5.70;99.90;;;;;;4968534;28;19918;-63
2023/02/27 10:46:29;;;;;;;;;;;5.60;99.90;;;;;;4964733;28;19968;-63
2023/02/27 10:48:57;;;;;;;;;;;5.80;99.90;;;;;;4975889;28;19997;-64
2023/02/27 10:51:22;;;;;;;;;;;6.00;99.90;;;;;;4973526;28;19921;-64
2023/02/27 10:53:48;;;;;;;;;;;6.00;99.90;;;;;;4970128;28;19909;-63
2023/02/27 10:56:20;;;;;;;;;;;5.90;99.90;;;;;;4974218;28;19926;-64
2023/02/27 10:58:46;;;;;;;;;;;6.10;99.90;;;;;;4974879;28;19918;-64
2023/02/27 11:01:11;;;;;;;;;;;6.10;99.90;;;;;;4977111;28;19922;-63
2023/02/27 11:03:38;;;;;;;;;;;6.00;99.90;;;;;;4981628;28;19913;-65
2023/02/27 11:06:21;;;;;;;;;;;6.10;99.90;;;;;;4968550;28;19961;-66
2023/02/27 11:09:06;;;;;;;;;;;6.40;99.90;;;;;;4972085;28;19918;-65
2023/02/27 11:11:32;;;;;;;;;;;6.70;99.90;;;;;;4968043;28;20367;-66
2023/02/27 11:14:13;;;;;;;;;;;6.80;99.90;;;;;;4976322;28;19953;-65
2023/02/27 11:16:44;;;;;;;;;;;6.80;99.90;;;;;;4967365;28;20017;-65
2023/02/27 11:19:22;;;;;;;;;;;6.80;99.90;;;;;;4972702;28;19997;-65
2023/02/27 11:21:58;;;;;;;;;;;6.60;99.90;;;;;;4972128;28;19926;-66
2023/02/27 11:24:24;;;;;;;;;;;6.40;99.90;;;;;;4976978;28;19924;-64
2023/02/27 11:26:54;;;;;;;;;;;6.50;99.90;;;;;;4973175;28;19921;-64
2023/02/27 11:29:19;;;;;;;;;;;6.70;99.90;;;;;;4974515;28;20390;-65
2023/02/27 11:31:45;;;;;;;;;;;6.80;99.90;;;;;;4974820;28;20012;-66
2023/02/27 11:34:16;;;;;;;;;;;6.90;99.90;;;;;;4972183;28;20262;-65
2023/02/27 11:36:43;;;;;;;;;;;7.10;99.90;;;;;;4979634;28;20313;-64
2023/02/27 11:39:21;;;;;;;;;;;7.20;99.90;;;;;;4974742;28;20308;-65
2023/02/27 11:41:47;;;;;;;;;;;7.30;99.90;;;;;;4967981;28;19914;-62
2023/02/27 11:44:15;;;;;;;;;;;7.50;99.90;;;;;;4977495;28;20004;-63
2023/02/27 11:46:42;;;;;;;;;;;7.50;99.90;;;;;;4970361;28;19933;-62
2023/02/27 11:49:31;;;;;;;;;;;7.50;99.90;;;;;;4972675;28;20443;-63
2023/02/27 11:52:10;;;;;;;;;;;7.70;99.90;;;;;;4968768;28;19922;-64
2023/02/27 11:54:39;;;;;;;;;;;7.90;99.90;;;;;;4967710;28;22606;-63
2023/02/27 11:57:11;;;;;;;;;;;8.10;99.90;;;;;;4967546;28;19918;-64
2023/02/27 11:59:46;;;;;;;;;;;8.10;99.90;;;;;;4960899;28;19925;-64
2023/02/27 12:02:16;;;;;;;;;;;8.10;99.90;;;;;;4974908;28;19922;-65
2023/02/27 12:04:44;;;;;;;;;;;8.10;99.90;;;;;;4969863;28;19925;-61
2023/02/27 12:07:16;;;;;;;;;;;8.30;99.90;;;;;;4956342;28;19927;-63
2023/02/27 12:09:50;;;;;;;;;;;8.30;99.90;;;;;;4973657;28;19918;-63
2023/02/27 12:12:19;;;;;;;;;;;8.50;99.90;;;;;;4974434;28;20025;-64
2023/02/27 12:14:49;;;;;;;;;;;8.60;99.90;;;;;;4971517;28;19926;-64
2023/02/27 12:17:21;;;;;;;;;;;8.40;99.90;;;;;;4972981;28;19921;-64
2023/02/27 12:19:55;;;;;;;;;;;8.50;99.90;;;;;;4970304;28;19918;-64
2023/02/27 12:22:23;;;;;;;;;;;8.70;99.90;;;;;;4978567;28;20505;-63
2023/02/27 12:25:07;;;;;;;;;;;8.90;99.90;;;;;;4969783;28;19914;-63
2023/02/27 12:27:35;;;;;;;;;;;9.00;99.90;;;;;;4970283;28;20008;-64
2023/02/27 12:30:05;;;;;;;;;;;9.20;99.50;;;;;;4970656;28;19945;-64
2023/02/27 12:32:30;;;;;;;;;;;9.20;99.70;;;;;;4982911;28;20376;-65
2023/02/27 12:35:16;;;;;;;;;;;9.00;99.10;;;;;;4980501;28;19960;-63
2023/02/27 12:37:41;;;;;;;;;;;9.00;99.60;;;;;;4984512;28;19914;-63
2023/02/27 12:40:12;;;;;;;;;;;9.00;98.90;;;;;;4984633;28;19965;-61
2023/02/27 12:42:56;;;;;;;;;;;9.00;98.80;;;;;;4987713;28;20556;-62
2023/02/27 12:45:25;;;;;;;;;;;9.20;99.90;;;;;;4979222;28;19968;-62
2023/02/27 12:48:09;;;;;;;;;;;9.30;98.10;;;;;;4981099;28;19984;-64
2023/02/27 12:50:40;;;;;;;;;;;9.50;99.10;;;;;;4989744;28;19940;-65
2023/02/27 12:53:05;;;;;;;;;;;9.90;97.60;;;;;;4974801;28;19922;-63
2023/02/27 12:55:41;;;;;;;;;;;10.00;96.90;;;;;;4978024;28;19929;-63
2023/02/27 12:58:13;;;;;;;;;;;9.90;96.90;;;;;;4982209;28;19924;-64
2023/02/27 13:00:48;;;;;;;;;;;10.00;98.10;;;;;;4984127;28;20442;-63
2023/02/27 13:03:26;;;;;;;;;;;10.00;97.30;;;;;;4982893;28;20383;-63
2023/02/27 13:06:00;;;;;;;;;;;10.10;96.10;;;;;;4987123;28;20013;-64
2023/02/27 13:08:32;;;;;;;;;;;9.90;95.20;;;;;;4989507;28;21467;-66
2023/02/27 13:11:33;;;;;;;;;;;9.90;95.30;;;;;;4979801;28;20018;-66
2023/02/27 13:14:00;;;;;;;;;;;10.00;95.80;;;;;;4934028;28;19919;-64
2023/02/27 13:16:32;;;;;;;;;;;10.10;97.00;;;;;;4961914;28;19993;-64
2023/02/27 13:19:00;;;;;;;;;;;10.30;96.80;;;;;;4979453;28;20247;-64
2023/02/27 13:21:29;;;;;;;;;;;10.50;95.70;;;;;;4977376;28;20303;-64
2023/02/27 13:24:04;;;;;;;;;;;10.60;94.50;;;;;;4985289;28;19917;-63
2023/02/27 13:26:33;;;;;;;;;;;10.50;94.40;;;;;;4982253;28;20347;-65
2023/02/27 13:28:59;;;;;;;;;;;10.50;94.80;;;;;;4981643;28;19925;-65
2023/02/27 13:31:25;;;;;;;;;;;10.60;94.60;;;;;;4988220;28;19922;-63
2023/02/27 13:33:57;;;;;;;;;;;10.60;94.80;;;;;;4985638;28;19924;-64
2023/02/27 13:36:34;;;;;;;;;;;10.20;95.20;;;;;;4980000;28;20371;-64
2023/02/27 13:39:00;;;;;;;;;;;10.40;93.60;;;;;;4981709;28;19918;-65
2023/02/27 13:41:34;;;;;;;;;;;10.50;94.00;;;;;;4985167;28;19973;-64
2023/02/27 13:44:19;;;;;;;;;;;10.30;93.60;;;;;;4982872;28;19926;-62
2023/02/27 13:46:45;;;;;;;;;;;10.50;93.70;;;;;;4981311;28;19917;-64
2023/02/27 13:49:11;;;;;;;;;;;10.40;93.70;;;;;;4984484;28;19928;-64
2023/02/27 13:51:37;;;;;;;;;;;10.30;93.80;;;;;;4982173;28;20446;-60
2023/02/27 13:54:11;;;;;;;;;;;10.30;93.40;;;;;;4983109;28;20004;-61
2023/02/27 13:56:38;;;;;;;;;;;10.20;92.50;;;;;;4988492;28;20005;-61
2023/02/27 13:59:32;;;;;;;;;;;10.30;92.50;;;;;;4997465;28;19914;-57
2023/02/27 14:02:18;;;;;;;;;;;10.40;92.10;;;;;;4949298;28;19974;-60
2023/02/27 14:04:48;;;;;;;;;;;10.40;92.40;;;;;;4978351;28;20005;-61
2023/02/27 14:07:17;;;;;;;;;;;10.40;92.80;;;;;;4983773;28;20008;-60
2023/02/27 14:09:43;;;;;;;;;;;10.60;93.50;;;;;;4973285;28;20402;-61
2023/02/27 14:12:38;;;;;;;;;;;10.50;93.30;;;;;;4987979;28;19926;-62
2023/02/27 14:15:25;;;;;;;;;;;10.70;93.00;;;;;;4975205;28;19926;-61
2023/02/27 14:17:57;;;;;;;;;;;10.60;91.90;;;;;;4959204;28;20433;-62
2023/02/27 14:20:31;;;;;;;;;;;10.70;91.90;;;;;;4981326;28;19914;-61
2023/02/27 14:23:03;;;;;;;;;;;10.60;92.60;;;;;;4981952;28;19920;-62
2023/02/27 14:25:38;;;;;;;;;;;10.70;92.60;;;;;;4973952;28;20297;-62
2023/02/27 14:28:04;;;;;;;;;;;10.40;91.50;;;;;;4980724;28;20296;-62
2023/02/27 14:30:41;;;;;;;;;;;10.10;91.70;;;;;;4972532;28;19921;-62
2023/02/27 14:33:20;;;;;;;;;;;10.00;92.40;;;;;;4971399;28;20447;-63
2023/02/27 14:35:50;;;;;;;;;;;9.70;92.60;;;;;;4983895;28;19921;-61
2023/02/27 14:38:17;;;;;;;;;;;9.70;92.10;;;;;;4989902;28;19918;-62